sensor_id;sensor_type;location;lat;lon;timestamp;P1;durP1;ratioP1;P2;durP2;ratioP2
23015;SDS011;11674;52.428;13.584;2023-08-21T00:01:09;11.73;;;8.13;;
23015;SDS011;11674;52.428;13.584;2023-08-21T00:06:16;10.15;;;8.18;;
23015;SDS011;11674;52.428;13.584;2023-08-21T00:11:23;9.98;;;7.30;;
23015;SDS011;11674;52.428;13.584;2023-08-21T00:16:30;16.27;;;9.50;;
23015;SDS011;11674;52.428;13.584;2023-08-21T00:21:38;10.70;;;7.50;;
23015;SDS011;11674;52.428;13.584;2023-08-21T00:26:45;12.30;;;8.82;;
23015;SDS011;11674;52.428;13.584;2023-08-21T00:31:52;11.00;;;7.63;;
23015;SDS011;11674;52.428;13.584;2023-08-21T00:36:59;16.65;;;7.80;;
23015;SDS011;11674;52.428;13.584;2023-08-21T00:42:06;11.30;;;7.95;;
23015;SDS011;11674;52.428;13.584;2023-08-21T00:47:13;12.63;;;8.55;;
23015;SDS011;11674;52.428;13.584;2023-08-21T00:52:21;12.93;;;8.18;;
23015;SDS011;11674;52.428;13.584;2023-08-21T00:57:28;9.95;;;7.30;;
23015;SDS011;11674;52.428;13.584;2023-08-21T01:02:35;11.70;;;8.23;;
23015;SDS011;11674;52.428;13.584;2023-08-21T01:07:47;10.38;;;8.00;;
23015;SDS011;11674;52.428;13.584;2023-08-21T01:13:05;11.90;;;7.90;;
23015;SDS011;11674;52.428;13.584;2023-08-21T01:18:16;12.07;;;7.93;;
23015;SDS011;11674;52.428;13.584;2023-08-21T01:23:30;10.68;;;7.93;;
23015;SDS011;11674;52.428;13.584;2023-08-21T01:28:38;15.95;;;7.80;;
23015;SDS011;11674;52.428;13.584;2023-08-21T01:33:45;13.23;;;8.68;;
23015;SDS011;11674;52.428;13.584;2023-08-21T01:38:57;11.40;;;8.10;;
23015;SDS011;11674;52.428;13.584;2023-08-21T01:44:04;13.27;;;8.10;;
23015;SDS011;11674;52.428;13.584;2023-08-21T01:49:12;14.55;;;8.35;;
23015;SDS011;11674;52.428;13.584;2023-08-21T01:54:19;13.55;;;8.07;;
23015;SDS011;11674;52.428;13.584;2023-08-21T01:59:27;10.30;;;7.47;;
23015;SDS011;11674;52.428;13.584;2023-08-21T02:04:34;10.98;;;8.27;;
23015;SDS011;11674;52.428;13.584;2023-08-21T02:09:41;13.13;;;8.00;;
23015;SDS011;11674;52.428;13.584;2023-08-21T02:14:55;11.57;;;8.00;;
23015;SDS011;11674;52.428;13.584;2023-08-21T02:20:06;11.65;;;8.32;;
23015;SDS011;11674;52.428;13.584;2023-08-21T02:25:13;11.70;;;8.00;;
23015;SDS011;11674;52.428;13.584;2023-08-21T02:30:21;10.55;;;7.70;;
23015;SDS011;11674;52.428;13.584;2023-08-21T02:35:28;11.70;;;7.75;;
23015;SDS011;11674;52.428;13.584;2023-08-21T02:40:35;11.27;;;7.60;;
23015;SDS011;11674;52.428;13.584;2023-08-21T02:45:42;9.77;;;8.00;;
23015;SDS011;11674;52.428;13.584;2023-08-21T02:50:49;11.75;;;8.23;;
23015;SDS011;11674;52.428;13.584;2023-08-21T02:55:56;14.20;;;8.57;;
23015;SDS011;11674;52.428;13.584;2023-08-21T03:01:03;13.40;;;8.02;;
23015;SDS011;11674;52.428;13.584;2023-08-21T03:06:10;11.73;;;8.02;;
23015;SDS011;11674;52.428;13.584;2023-08-21T03:11:17;12.25;;;8.27;;
23015;SDS011;11674;52.428;13.584;2023-08-21T03:16:24;10.90;;;8.27;;
23015;SDS011;11674;52.428;13.584;2023-08-21T03:21:31;11.25;;;7.75;;
23015;SDS011;11674;52.428;13.584;2023-08-21T03:26:38;10.65;;;7.65;;
23015;SDS011;11674;52.428;13.584;2023-08-21T03:31:49;15.02;;;7.78;;
23015;SDS011;11674;52.428;13.584;2023-08-21T03:36:57;9.50;;;7.32;;
23015;SDS011;11674;52.428;13.584;2023-08-21T03:42:06;15.25;;;7.93;;
23015;SDS011;11674;52.428;13.584;2023-08-21T03:47:13;12.25;;;7.43;;
23015;SDS011;11674;52.428;13.584;2023-08-21T03:52:32;13.10;;;7.50;;
23015;SDS011;11674;52.428;13.584;2023-08-21T03:57:39;15.95;;;8.30;;
23015;SDS011;11674;52.428;13.584;2023-08-21T04:02:46;13.32;;;8.27;;
23015;SDS011;11674;52.428;13.584;2023-08-21T04:07:53;11.50;;;7.28;;
23015;SDS011;11674;52.428;13.584;2023-08-21T04:13:00;14.38;;;6.93;;
23015;SDS011;11674;52.428;13.584;2023-08-21T04:18:08;9.15;;;7.15;;
23015;SDS011;11674;52.428;13.584;2023-08-21T04:23:15;8.68;;;6.93;;
23015;SDS011;11674;52.428;13.584;2023-08-21T04:28:22;13.52;;;7.43;;
23015;SDS011;11674;52.428;13.584;2023-08-21T04:33:29;9.48;;;7.00;;
23015;SDS011;11674;52.428;13.584;2023-08-21T04:38:36;11.45;;;7.35;;
23015;SDS011;11674;52.428;13.584;2023-08-21T04:43:44;8.38;;;6.68;;
23015;SDS011;11674;52.428;13.584;2023-08-21T04:48:51;9.60;;;7.57;;
23015;SDS011;11674;52.428;13.584;2023-08-21T04:53:59;12.63;;;7.53;;
23015;SDS011;11674;52.428;13.584;2023-08-21T04:59:06;11.35;;;7.80;;
23015;SDS011;11674;52.428;13.584;2023-08-21T05:04:13;13.10;;;7.75;;
23015;SDS011;11674;52.428;13.584;2023-08-21T05:09:22;9.80;;;7.20;;
23015;SDS011;11674;52.428;13.584;2023-08-21T05:14:29;14.95;;;7.32;;
23015;SDS011;11674;52.428;13.584;2023-08-21T05:19:36;14.07;;;7.70;;
23015;SDS011;11674;52.428;13.584;2023-08-21T05:24:43;10.52;;;7.68;;
23015;SDS011;11674;52.428;13.584;2023-08-21T05:29:50;11.60;;;8.23;;
23015;SDS011;11674;52.428;13.584;2023-08-21T05:34:57;10.65;;;7.93;;
23015;SDS011;11674;52.428;13.584;2023-08-21T05:40:05;11.07;;;7.80;;
23015;SDS011;11674;52.428;13.584;2023-08-21T05:45:20;11.20;;;7.50;;
23015;SDS011;11674;52.428;13.584;2023-08-21T05:50:36;11.57;;;7.43;;
23015;SDS011;11674;52.428;13.584;2023-08-21T05:55:44;12.07;;;7.32;;
23015;SDS011;11674;52.428;13.584;2023-08-21T06:00:51;10.40;;;7.10;;
23015;SDS011;11674;52.428;13.584;2023-08-21T06:05:58;13.85;;;6.85;;
23015;SDS011;11674;52.428;13.584;2023-08-21T06:11:05;12.75;;;7.45;;
23015;SDS011;11674;52.428;13.584;2023-08-21T06:16:12;14.07;;;7.63;;
23015;SDS011;11674;52.428;13.584;2023-08-21T06:21:21;11.43;;;7.72;;
23015;SDS011;11674;52.428;13.584;2023-08-21T06:26:28;8.77;;;7.20;;
23015;SDS011;11674;52.428;13.584;2023-08-21T06:31:35;11.20;;;7.50;;
23015;SDS011;11674;52.428;13.584;2023-08-21T06:36:42;8.98;;;7.40;;
23015;SDS011;11674;52.428;13.584;2023-08-21T06:41:50;9.73;;;7.45;;
23015;SDS011;11674;52.428;13.584;2023-08-21T06:47:05;15.32;;;7.60;;
23015;SDS011;11674;52.428;13.584;2023-08-21T06:52:12;17.08;;;7.25;;
23015;SDS011;11674;52.428;13.584;2023-08-21T06:57:19;9.90;;;7.60;;
23015;SDS011;11674;52.428;13.584;2023-08-21T07:02:26;9.27;;;6.95;;
23015;SDS011;11674;52.428;13.584;2023-08-21T07:07:33;14.35;;;7.70;;
23015;SDS011;11674;52.428;13.584;2023-08-21T07:12:40;10.20;;;7.97;;
23015;SDS011;11674;52.428;13.584;2023-08-21T07:17:47;9.48;;;7.60;;
23015;SDS011;11674;52.428;13.584;2023-08-21T07:22:54;15.18;;;9.23;;
23015;SDS011;11674;52.428;13.584;2023-08-21T07:28:01;14.85;;;8.57;;
23015;SDS011;11674;52.428;13.584;2023-08-21T07:33:08;13.63;;;9.25;;
23015;SDS011;11674;52.428;13.584;2023-08-21T07:38:15;13.20;;;8.40;;
23015;SDS011;11674;52.428;13.584;2023-08-21T07:43:22;14.05;;;7.72;;
23015;SDS011;11674;52.428;13.584;2023-08-21T07:48:29;10.05;;;7.30;;
23015;SDS011;11674;52.428;13.584;2023-08-21T07:53:36;10.05;;;6.43;;
23015;SDS011;11674;52.428;13.584;2023-08-21T07:58:44;7.88;;;6.20;;
23015;SDS011;11674;52.428;13.584;2023-08-21T08:03:51;7.05;;;4.70;;
23015;SDS011;11674;52.428;13.584;2023-08-21T08:08:58;8.48;;;5.78;;
23015;SDS011;11674;52.428;13.584;2023-08-21T08:14:05;9.00;;;5.03;;
23015;SDS011;11674;52.428;13.584;2023-08-21T08:19:12;9.93;;;5.20;;
23015;SDS011;11674;52.428;13.584;2023-08-21T08:24:19;8.43;;;4.68;;
23015;SDS011;11674;52.428;13.584;2023-08-21T08:29:26;8.18;;;3.97;;
23015;SDS011;11674;52.428;13.584;2023-08-21T08:34:33;7.90;;;3.10;;
23015;SDS011;11674;52.428;13.584;2023-08-21T08:39:40;5.30;;;2.70;;
23015;SDS011;11674;52.428;13.584;2023-08-21T08:44:47;5.50;;;2.50;;
23015;SDS011;11674;52.428;13.584;2023-08-21T08:49:55;5.57;;;2.83;;
23015;SDS011;11674;52.428;13.584;2023-08-21T08:55:02;6.78;;;2.95;;
23015;SDS011;11674;52.428;13.584;2023-08-21T09:00:10;4.93;;;2.92;;
23015;SDS011;11674;52.428;13.584;2023-08-21T09:05:18;5.18;;;2.83;;
23015;SDS011;11674;52.428;13.584;2023-08-21T09:10:25;10.80;;;3.22;;
23015;SDS011;11674;52.428;13.584;2023-08-21T09:15:40;9.20;;;2.67;;
23015;SDS011;11674;52.428;13.584;2023-08-21T09:20:48;3.97;;;3.00;;
23015;SDS011;11674;52.428;13.584;2023-08-21T09:25:55;6.38;;;2.45;;
23015;SDS011;11674;52.428;13.584;2023-08-21T09:31:02;10.05;;;2.90;;
23015;SDS011;11674;52.428;13.584;2023-08-21T09:36:09;6.47;;;2.60;;
23015;SDS011;11674;52.428;13.584;2023-08-21T09:41:18;7.05;;;2.60;;
23015;SDS011;11674;52.428;13.584;2023-08-21T09:46:26;4.57;;;2.50;;
23015;SDS011;11674;52.428;13.584;2023-08-21T09:51:34;7.00;;;3.75;;
23015;SDS011;11674;52.428;13.584;2023-08-21T09:56:41;11.93;;;2.50;;
23015;SDS011;11674;52.428;13.584;2023-08-21T10:01:48;3.60;;;1.77;;
23015;SDS011;11674;52.428;13.584;2023-08-21T10:06:56;5.95;;;1.83;;
23015;SDS011;11674;52.428;13.584;2023-08-21T10:12:04;5.78;;;1.50;;
23015;SDS011;11674;52.428;13.584;2023-08-21T10:17:11;4.03;;;1.27;;
23015;SDS011;11674;52.428;13.584;2023-08-21T10:22:38;2.53;;;1.02;;
23015;SDS011;11674;52.428;13.584;2023-08-21T10:27:51;17.65;;;1.73;;
23015;SDS011;11674;52.428;13.584;2023-08-21T10:33:00;4.55;;;1.15;;
23015;SDS011;11674;52.428;13.584;2023-08-21T10:43:37;5.75;;;1.15;;
23015;SDS011;11674;52.428;13.584;2023-08-21T10:48:44;8.02;;;1.17;;
23015;SDS011;11674;52.428;13.584;2023-08-21T10:53:51;9.05;;;1.20;;
23015;SDS011;11674;52.428;13.584;2023-08-21T10:58:58;4.60;;;1.10;;
23015;SDS011;11674;52.428;13.584;2023-08-21T11:04:05;3.25;;;1.20;;
23015;SDS011;11674;52.428;13.584;2023-08-21T11:09:12;4.97;;;1.45;;
23015;SDS011;11674;52.428;13.584;2023-08-21T11:14:24;2.10;;;0.90;;
23015;SDS011;11674;52.428;13.584;2023-08-21T11:19:32;2.30;;;0.98;;
23015;SDS011;11674;52.428;13.584;2023-08-21T11:24:46;7.60;;;1.17;;
23015;SDS011;11674;52.428;13.584;2023-08-21T11:29:54;2.63;;;1.20;;
23015;SDS011;11674;52.428;13.584;2023-08-21T11:35:01;7.03;;;1.30;;
23015;SDS011;11674;52.428;13.584;2023-08-21T11:40:08;7.88;;;1.20;;
23015;SDS011;11674;52.428;13.584;2023-08-21T11:45:15;3.55;;;1.10;;
23015;SDS011;11674;52.428;13.584;2023-08-21T11:50:22;4.30;;;1.05;;
23015;SDS011;11674;52.428;13.584;2023-08-21T11:55:29;7.68;;;1.33;;
23015;SDS011;11674;52.428;13.584;2023-08-21T12:00:36;7.68;;;1.50;;
23015;SDS011;11674;52.428;13.584;2023-08-21T12:05:46;8.32;;;1.70;;
23015;SDS011;11674;52.428;13.584;2023-08-21T12:10:53;10.70;;;1.60;;
23015;SDS011;11674;52.428;13.584;2023-08-21T12:16:00;2.65;;;1.08;;
23015;SDS011;11674;52.428;13.584;2023-08-21T12:21:07;7.43;;;1.42;;
23015;SDS011;11674;52.428;13.584;2023-08-21T12:26:14;2.15;;;0.77;;
23015;SDS011;11674;52.428;13.584;2023-08-21T12:31:21;3.35;;;1.10;;
23015;SDS011;11674;52.428;13.584;2023-08-21T12:36:28;4.07;;;1.35;;
23015;SDS011;11674;52.428;13.584;2023-08-21T12:41:35;6.28;;;1.23;;
23015;SDS011;11674;52.428;13.584;2023-08-21T12:46:42;3.53;;;1.13;;
23015;SDS011;11674;52.428;13.584;2023-08-21T12:51:49;3.10;;;1.73;;
23015;SDS011;11674;52.428;13.584;2023-08-21T12:56:56;2.38;;;0.90;;
23015;SDS011;11674;52.428;13.584;2023-08-21T13:02:03;6.40;;;0.90;;
23015;SDS011;11674;52.428;13.584;2023-08-21T13:07:10;5.15;;;0.93;;
23015;SDS011;11674;52.428;13.584;2023-08-21T13:12:17;2.65;;;1.00;;
23015;SDS011;11674;52.428;13.584;2023-08-21T13:17:24;3.35;;;1.05;;
23015;SDS011;11674;52.428;13.584;2023-08-21T13:22:47;12.57;;;1.75;;
23015;SDS011;11674;52.428;13.584;2023-08-21T13:27:55;8.32;;;1.38;;
23015;SDS011;11674;52.428;13.584;2023-08-21T13:33:02;4.32;;;1.33;;
23015;SDS011;11674;52.428;13.584;2023-08-21T13:38:09;2.15;;;0.98;;
23015;SDS011;11674;52.428;13.584;2023-08-21T13:43:16;2.83;;;0.93;;
23015;SDS011;11674;52.428;13.584;2023-08-21T13:48:23;2.45;;;0.80;;
23015;SDS011;11674;52.428;13.584;2023-08-21T13:53:30;6.30;;;1.00;;
23015;SDS011;11674;52.428;13.584;2023-08-21T13:58:37;7.47;;;1.00;;
23015;SDS011;11674;52.428;13.584;2023-08-21T14:03:44;6.95;;;1.33;;
23015;SDS011;11674;52.428;13.584;2023-08-21T14:08:51;4.60;;;1.02;;
23015;SDS011;11674;52.428;13.584;2023-08-21T14:13:58;1.48;;;0.90;;
23015;SDS011;11674;52.428;13.584;2023-08-21T14:19:05;2.40;;;1.10;;
23015;SDS011;11674;52.428;13.584;2023-08-21T14:24:12;4.20;;;0.88;;
23015;SDS011;11674;52.428;13.584;2023-08-21T14:29:19;7.05;;;1.20;;
23015;SDS011;11674;52.428;13.584;2023-08-21T14:34:26;4.03;;;1.00;;
23015;SDS011;11674;52.428;13.584;2023-08-21T14:39:33;7.47;;;1.00;;
23015;SDS011;11674;52.428;13.584;2023-08-21T14:44:40;4.50;;;0.82;;
23015;SDS011;11674;52.428;13.584;2023-08-21T14:49:47;4.28;;;1.08;;
23015;SDS011;11674;52.428;13.584;2023-08-21T14:54:54;3.17;;;1.20;;
23015;SDS011;11674;52.428;13.584;2023-08-21T15:00:02;4.22;;;1.33;;
23015;SDS011;11674;52.428;13.584;2023-08-21T15:05:09;7.32;;;1.17;;
23015;SDS011;11674;52.428;13.584;2023-08-21T15:10:16;5.22;;;1.92;;
23015;SDS011;11674;52.428;13.584;2023-08-21T15:15:23;3.00;;;1.02;;
23015;SDS011;11674;52.428;13.584;2023-08-21T15:20:30;4.07;;;1.08;;
23015;SDS011;11674;52.428;13.584;2023-08-21T15:25:37;11.40;;;1.73;;
23015;SDS011;11674;52.428;13.584;2023-08-21T15:30:44;6.72;;;1.50;;
23015;SDS011;11674;52.428;13.584;2023-08-21T15:35:51;3.33;;;1.00;;
23015;SDS011;11674;52.428;13.584;2023-08-21T15:41:05;4.65;;;0.90;;
23015;SDS011;11674;52.428;13.584;2023-08-21T15:46:12;4.18;;;1.17;;
23015;SDS011;11674;52.428;13.584;2023-08-21T15:51:19;2.35;;;0.90;;
23015;SDS011;11674;52.428;13.584;2023-08-21T15:56:26;2.72;;;1.05;;
23015;SDS011;11674;52.428;13.584;2023-08-21T16:01:33;5.35;;;1.13;;
23015;SDS011;11674;52.428;13.584;2023-08-21T16:06:40;3.00;;;1.02;;
23015;SDS011;11674;52.428;13.584;2023-08-21T16:11:47;2.95;;;0.88;;
23015;SDS011;11674;52.428;13.584;2023-08-21T16:16:57;5.03;;;1.10;;
23015;SDS011;11674;52.428;13.584;2023-08-21T16:22:04;4.45;;;1.30;;
23015;SDS011;11674;52.428;13.584;2023-08-21T16:27:11;3.85;;;1.20;;
23015;SDS011;11674;52.428;13.584;2023-08-21T16:32:18;2.25;;;1.05;;
23015;SDS011;11674;52.428;13.584;2023-08-21T16:37:25;3.10;;;0.90;;
23015;SDS011;11674;52.428;13.584;2023-08-21T16:42:32;4.13;;;0.98;;
23015;SDS011;11674;52.428;13.584;2023-08-21T16:47:39;5.57;;;1.13;;
23015;SDS011;11674;52.428;13.584;2023-08-21T16:52:46;2.65;;;0.82;;
23015;SDS011;11674;52.428;13.584;2023-08-21T16:57:53;3.83;;;0.98;;
23015;SDS011;11674;52.428;13.584;2023-08-21T17:03:00;2.17;;;1.08;;
23015;SDS011;11674;52.428;13.584;2023-08-21T17:08:07;3.10;;;1.10;;
23015;SDS011;11674;52.428;13.584;2023-08-21T17:13:15;4.00;;;1.17;;
23015;SDS011;11674;52.428;13.584;2023-08-21T17:18:22;5.70;;;1.25;;
23015;SDS011;11674;52.428;13.584;2023-08-21T17:23:29;4.18;;;1.00;;
23015;SDS011;11674;52.428;13.584;2023-08-21T17:28:36;2.53;;;0.93;;
23015;SDS011;11674;52.428;13.584;2023-08-21T17:33:43;2.55;;;1.13;;
23015;SDS011;11674;52.428;13.584;2023-08-21T17:38:50;5.80;;;1.15;;
23015;SDS011;11674;52.428;13.584;2023-08-21T17:43:57;2.53;;;0.85;;
23015;SDS011;11674;52.428;13.584;2023-08-21T17:49:04;3.75;;;1.13;;
23015;SDS011;11674;52.428;13.584;2023-08-21T17:54:11;5.05;;;1.63;;
23015;SDS011;11674;52.428;13.584;2023-08-21T17:59:18;2.83;;;1.17;;
23015;SDS011;11674;52.428;13.584;2023-08-21T18:04:25;2.30;;;1.10;;
23015;SDS011;11674;52.428;13.584;2023-08-21T18:09:32;6.78;;;2.88;;
23015;SDS011;11674;52.428;13.584;2023-08-21T18:14:39;4.47;;;1.75;;
23015;SDS011;11674;52.428;13.584;2023-08-21T18:19:46;3.95;;;1.70;;
23015;SDS011;11674;52.428;13.584;2023-08-21T18:24:53;5.18;;;1.30;;
23015;SDS011;11674;52.428;13.584;2023-08-21T18:30:00;8.18;;;2.33;;
23015;SDS011;11674;52.428;13.584;2023-08-21T18:35:07;7.00;;;1.60;;
23015;SDS011;11674;52.428;13.584;2023-08-21T18:40:14;3.95;;;1.17;;
23015;SDS011;11674;52.428;13.584;2023-08-21T18:45:21;3.25;;;1.55;;
23015;SDS011;11674;52.428;13.584;2023-08-21T18:50:46;4.10;;;1.40;;
23015;SDS011;11674;52.428;13.584;2023-08-21T18:55:53;3.78;;;1.20;;
23015;SDS011;11674;52.428;13.584;2023-08-21T19:01:00;5.63;;;1.25;;
23015;SDS011;11674;52.428;13.584;2023-08-21T19:06:07;3.03;;;1.58;;
23015;SDS011;11674;52.428;13.584;2023-08-21T19:11:14;3.72;;;1.25;;
23015;SDS011;11674;52.428;13.584;2023-08-21T19:16:21;3.88;;;1.50;;
23015;SDS011;11674;52.428;13.584;2023-08-21T19:21:28;3.78;;;1.40;;
23015;SDS011;11674;52.428;13.584;2023-08-21T19:26:35;5.35;;;1.50;;
23015;SDS011;11674;52.428;13.584;2023-08-21T19:31:42;3.05;;;1.60;;
23015;SDS011;11674;52.428;13.584;2023-08-21T19:36:49;2.63;;;1.48;;
23015;SDS011;11674;52.428;13.584;2023-08-21T19:41:56;4.90;;;1.70;;
23015;SDS011;11674;52.428;13.584;2023-08-21T19:47:03;2.55;;;1.40;;
23015;SDS011;11674;52.428;13.584;2023-08-21T19:52:10;5.60;;;1.77;;
23015;SDS011;11674;52.428;13.584;2023-08-21T19:57:17;6.75;;;1.77;;
23015;SDS011;11674;52.428;13.584;2023-08-21T20:02:24;4.32;;;1.60;;
23015;SDS011;11674;52.428;13.584;2023-08-21T20:07:31;7.63;;;2.40;;
23015;SDS011;11674;52.428;13.584;2023-08-21T20:12:38;4.28;;;1.67;;
23015;SDS011;11674;52.428;13.584;2023-08-21T20:17:46;4.85;;;1.58;;
23015;SDS011;11674;52.428;13.584;2023-08-21T20:22:53;6.00;;;1.98;;
23015;SDS011;11674;52.428;13.584;2023-08-21T20:28:00;7.80;;;1.98;;
23015;SDS011;11674;52.428;13.584;2023-08-21T20:33:07;6.57;;;2.13;;
23015;SDS011;11674;52.428;13.584;2023-08-21T20:38:14;9.73;;;2.00;;
23015;SDS011;11674;52.428;13.584;2023-08-21T20:43:22;6.47;;;1.88;;
23015;SDS011;11674;52.428;13.584;2023-08-21T20:48:28;7.60;;;2.20;;
23015;SDS011;11674;52.428;13.584;2023-08-21T20:53:35;6.45;;;1.80;;
23015;SDS011;11674;52.428;13.584;2023-08-21T20:58:42;5.55;;;1.90;;
23015;SDS011;11674;52.428;13.584;2023-08-21T21:03:49;4.78;;;1.80;;
23015;SDS011;11674;52.428;13.584;2023-08-21T21:08:56;5.03;;;2.00;;
23015;SDS011;11674;52.428;13.584;2023-08-21T21:14:03;4.18;;;1.33;;
23015;SDS011;11674;52.428;13.584;2023-08-21T21:19:10;9.07;;;1.95;;
23015;SDS011;11674;52.428;13.584;2023-08-21T21:24:17;4.00;;;1.58;;
23015;SDS011;11674;52.428;13.584;2023-08-21T21:29:24;4.45;;;1.85;;
23015;SDS011;11674;52.428;13.584;2023-08-21T21:34:31;8.80;;;1.98;;
23015;SDS011;11674;52.428;13.584;2023-08-21T21:39:38;4.53;;;1.40;;
23015;SDS011;11674;52.428;13.584;2023-08-21T21:44:46;2.65;;;1.40;;
23015;SDS011;11674;52.428;13.584;2023-08-21T21:49:52;5.45;;;1.58;;
23015;SDS011;11674;52.428;13.584;2023-08-21T21:54:59;4.75;;;1.60;;
23015;SDS011;11674;52.428;13.584;2023-08-21T22:00:07;8.02;;;1.58;;
23015;SDS011;11674;52.428;13.584;2023-08-21T22:05:13;5.65;;;1.50;;
23015;SDS011;11674;52.428;13.584;2023-08-21T22:10:20;11.95;;;1.80;;
23015;SDS011;11674;52.428;13.584;2023-08-21T22:15:27;2.88;;;1.55;;
23015;SDS011;11674;52.428;13.584;2023-08-21T22:20:34;3.58;;;1.60;;
23015;SDS011;11674;52.428;13.584;2023-08-21T22:25:41;4.25;;;1.65;;
23015;SDS011;11674;52.428;13.584;2023-08-21T22:30:48;4.15;;;1.65;;
23015;SDS011;11674;52.428;13.584;2023-08-21T22:35:55;2.92;;;1.27;;
23015;SDS011;11674;52.428;13.584;2023-08-21T22:41:02;3.28;;;1.60;;
23015;SDS011;11674;52.428;13.584;2023-08-21T22:46:09;3.90;;;1.45;;
23015;SDS011;11674;52.428;13.584;2023-08-21T22:51:16;3.42;;;1.60;;
23015;SDS011;11674;52.428;13.584;2023-08-21T22:56:23;4.72;;;1.75;;
23015;SDS011;11674;52.428;13.584;2023-08-21T23:01:30;5.43;;;1.80;;
23015;SDS011;11674;52.428;13.584;2023-08-21T23:06:38;6.65;;;1.70;;
23015;SDS011;11674;52.428;13.584;2023-08-21T23:11:45;4.32;;;1.80;;
23015;SDS011;11674;52.428;13.584;2023-08-21T23:16:52;7.47;;;1.70;;
23015;SDS011;11674;52.428;13.584;2023-08-21T23:21:59;6.72;;;1.63;;
23015;SDS011;11674;52.428;13.584;2023-08-21T23:27:06;3.55;;;1.52;;
23015;SDS011;11674;52.428;13.584;2023-08-21T23:32:13;3.30;;;1.98;;
23015;SDS011;11674;52.428;13.584;2023-08-21T23:37:20;4.68;;;1.80;;
23015;SDS011;11674;52.428;13.584;2023-08-21T23:42:27;4.97;;;1.80;;
23015;SDS011;11674;52.428;13.584;2023-08-21T23:47:34;5.40;;;1.70;;
23015;SDS011;11674;52.428;13.584;2023-08-21T23:52:41;7.93;;;1.70;;
23015;SDS011;11674;52.428;13.584;2023-08-21T23:57:48;6.93;;;2.10;;
